sensor_id;sensor_type;location;lat;lon;timestamp;temperature;humidity
34249;DHT22;20508;50.834;3.160;2022-10-16T00:00:10;20.40;55.20
34249;DHT22;20508;50.834;3.160;2022-10-16T00:02:37;20.40;55.30
34249;DHT22;20508;50.834;3.160;2022-10-16T00:05:03;20.40;55.20
34249;DHT22;20508;50.834;3.160;2022-10-16T00:07:29;20.40;55.20
34249;DHT22;20508;50.834;3.160;2022-10-16T00:09:55;20.40;55.20
34249;DHT22;20508;50.834;3.160;2022-10-16T00:12:22;20.50;55.20
34249;DHT22;20508;50.834;3.160;2022-10-16T00:14:48;20.50;55.20
34249;DHT22;20508;50.834;3.160;2022-10-16T00:17:14;20.40;55.10
34249;DHT22;20508;50.834;3.160;2022-10-16T00:19:40;20.50;55.20
34249;DHT22;20508;50.834;3.160;2022-10-16T00:22:06;20.50;55.20
34249;DHT22;20508;50.834;3.160;2022-10-16T00:24:32;20.50;55.20
34249;DHT22;20508;50.834;3.160;2022-10-16T00:26:58;20.40;55.20
34249;DHT22;20508;50.834;3.160;2022-10-16T00:29:25;20.40;55.30
34249;DHT22;20508;50.834;3.160;2022-10-16T00:31:53;20.40;55.30
34249;DHT22;20508;50.834;3.160;2022-10-16T00:34:19;20.40;55.40
34249;DHT22;20508;50.834;3.160;2022-10-16T00:36:48;20.40;55.40
34249;DHT22;20508;50.834;3.160;2022-10-16T00:39:14;20.40;55.50
34249;DHT22;20508;50.834;3.160;2022-10-16T00:41:40;20.40;55.60
34249;DHT22;20508;50.834;3.160;2022-10-16T00:47:32;20.40;55.40
34249;DHT22;20508;50.834;3.160;2022-10-16T00:52:48;20.40;55.50
34249;DHT22;20508;50.834;3.160;2022-10-16T00:55:16;20.30;55.60
34249;DHT22;20508;50.834;3.160;2022-10-16T00:57:44;20.40;55.70
34249;DHT22;20508;50.834;3.160;2022-10-16T01:00:17;20.40;55.60
34249;DHT22;20508;50.834;3.160;2022-10-16T01:02:44;20.40;55.60
34249;DHT22;20508;50.834;3.160;2022-10-16T01:05:10;20.30;55.60
34249;DHT22;20508;50.834;3.160;2022-10-16T01:13:21;20.50;55.80
34249;DHT22;20508;50.834;3.160;2022-10-16T01:18:22;20.40;55.80
34249;DHT22;20508;50.834;3.160;2022-10-16T01:28:42;20.50;55.70
34249;DHT22;20508;50.834;3.160;2022-10-16T01:31:17;20.50;55.60
34249;DHT22;20508;50.834;3.160;2022-10-16T01:33:47;20.50;55.70
34249;DHT22;20508;50.834;3.160;2022-10-16T01:36:23;20.50;55.60
34249;DHT22;20508;50.834;3.160;2022-10-16T01:38:53;20.50;55.60
34249;DHT22;20508;50.834;3.160;2022-10-16T01:41:24;20.50;55.70
34249;DHT22;20508;50.834;3.160;2022-10-16T01:44:14;20.50;55.60
34249;DHT22;20508;50.834;3.160;2022-10-16T01:46:43;20.50;55.50
34249;DHT22;20508;50.834;3.160;2022-10-16T01:49:14;20.40;55.70
34249;DHT22;20508;50.834;3.160;2022-10-16T01:51:45;20.50;55.80
34249;DHT22;20508;50.834;3.160;2022-10-16T01:54:13;20.40;55.70
34249;DHT22;20508;50.834;3.160;2022-10-16T01:56:41;20.40;55.90
34249;DHT22;20508;50.834;3.160;2022-10-16T01:59:13;20.40;55.90
34249;DHT22;20508;50.834;3.160;2022-10-16T02:01:44;20.40;55.90
34249;DHT22;20508;50.834;3.160;2022-10-16T02:04:28;20.30;55.90
34249;DHT22;20508;50.834;3.160;2022-10-16T02:06:55;20.30;55.90
34249;DHT22;20508;50.834;3.160;2022-10-16T02:09:21;20.30;56.00
34249;DHT22;20508;50.834;3.160;2022-10-16T02:11:48;20.30;56.10
34249;DHT22;20508;50.834;3.160;2022-10-16T02:14:15;20.30;56.10
34249;DHT22;20508;50.834;3.160;2022-10-16T02:16:44;20.30;56.10
34249;DHT22;20508;50.834;3.160;2022-10-16T02:19:14;20.30;56.10
34249;DHT22;20508;50.834;3.160;2022-10-16T02:21:47;20.30;56.10
34249;DHT22;20508;50.834;3.160;2022-10-16T02:24:20;20.30;56.00
34249;DHT22;20508;50.834;3.160;2022-10-16T02:29:26;20.40;56.00
34249;DHT22;20508;50.834;3.160;2022-10-16T02:31:59;20.30;56.00
34249;DHT22;20508;50.834;3.160;2022-10-16T02:34:27;20.30;55.90
34249;DHT22;20508;50.834;3.160;2022-10-16T02:36:55;20.30;56.00
34249;DHT22;20508;50.834;3.160;2022-10-16T02:39:22;20.30;56.00
34249;DHT22;20508;50.834;3.160;2022-10-16T02:41:48;20.30;56.10
34249;DHT22;20508;50.834;3.160;2022-10-16T02:44:15;20.30;56.10
34249;DHT22;20508;50.834;3.160;2022-10-16T02:46:41;20.30;56.10
34249;DHT22;20508;50.834;3.160;2022-10-16T02:49:07;20.30;56.10
34249;DHT22;20508;50.834;3.160;2022-10-16T02:51:33;20.30;56.10
34249;DHT22;20508;50.834;3.160;2022-10-16T02:54:00;20.30;56.30
34249;DHT22;20508;50.834;3.160;2022-10-16T02:56:26;20.30;56.30
34249;DHT22;20508;50.834;3.160;2022-10-16T02:58:55;20.20;56.20
34249;DHT22;20508;50.834;3.160;2022-10-16T03:01:21;20.30;56.20
34249;DHT22;20508;50.834;3.160;2022-10-16T03:03:49;20.30;56.10
34249;DHT22;20508;50.834;3.160;2022-10-16T03:06:16;20.30;56.10
34249;DHT22;20508;50.834;3.160;2022-10-16T03:08:42;20.30;56.10
34249;DHT22;20508;50.834;3.160;2022-10-16T03:11:09;20.30;56.10
34249;DHT22;20508;50.834;3.160;2022-10-16T03:13:35;20.30;56.00
34249;DHT22;20508;50.834;3.160;2022-10-16T03:16:01;20.30;55.90
34249;DHT22;20508;50.834;3.160;2022-10-16T03:18:27;20.30;55.90
34249;DHT22;20508;50.834;3.160;2022-10-16T03:20:53;20.30;56.00
34249;DHT22;20508;50.834;3.160;2022-10-16T03:23:23;20.30;56.00
34249;DHT22;20508;50.834;3.160;2022-10-16T03:25:50;20.30;56.00
34249;DHT22;20508;50.834;3.160;2022-10-16T03:28:18;20.30;56.10
34249;DHT22;20508;50.834;3.160;2022-10-16T03:30:44;20.20;56.10
34249;DHT22;20508;50.834;3.160;2022-10-16T03:33:10;20.20;56.10
34249;DHT22;20508;50.834;3.160;2022-10-16T03:35:36;20.20;56.00
34249;DHT22;20508;50.834;3.160;2022-10-16T03:38:03;20.20;56.70
34249;DHT22;20508;50.834;3.160;2022-10-16T03:40:29;20.20;56.10
34249;DHT22;20508;50.834;3.160;2022-10-16T03:42:57;20.20;56.20
34249;DHT22;20508;50.834;3.160;2022-10-16T03:45:24;20.20;56.10
34249;DHT22;20508;50.834;3.160;2022-10-16T03:47:50;20.20;56.00
34249;DHT22;20508;50.834;3.160;2022-10-16T03:50:17;20.20;56.00
34249;DHT22;20508;50.834;3.160;2022-10-16T03:52:43;20.20;56.00
34249;DHT22;20508;50.834;3.160;2022-10-16T03:55:09;20.30;55.90
34249;DHT22;20508;50.834;3.160;2022-10-16T03:57:35;20.20;55.80
34249;DHT22;20508;50.834;3.160;2022-10-16T04:00:01;20.30;55.90
34249;DHT22;20508;50.834;3.160;2022-10-16T04:02:28;20.30;55.80
34249;DHT22;20508;50.834;3.160;2022-10-16T04:04:57;20.30;55.90
34249;DHT22;20508;50.834;3.160;2022-10-16T04:07:23;20.20;55.80
34249;DHT22;20508;50.834;3.160;2022-10-16T04:09:49;20.30;55.80
34249;DHT22;20508;50.834;3.160;2022-10-16T04:12:17;20.30;55.80
34249;DHT22;20508;50.834;3.160;2022-10-16T04:14:43;20.30;55.70
34249;DHT22;20508;50.834;3.160;2022-10-16T04:17:09;20.30;55.70
34249;DHT22;20508;50.834;3.160;2022-10-16T04:19:36;20.30;55.70
34249;DHT22;20508;50.834;3.160;2022-10-16T04:22:02;20.30;55.60
34249;DHT22;20508;50.834;3.160;2022-10-16T04:24:28;20.30;55.60
34249;DHT22;20508;50.834;3.160;2022-10-16T04:26:55;20.30;55.60
34249;DHT22;20508;50.834;3.160;2022-10-16T04:29:21;20.30;55.50
34249;DHT22;20508;50.834;3.160;2022-10-16T04:31:47;20.30;55.50
34249;DHT22;20508;50.834;3.160;2022-10-16T04:34:13;20.40;55.50
34249;DHT22;20508;50.834;3.160;2022-10-16T04:36:40;20.30;55.50
34249;DHT22;20508;50.834;3.160;2022-10-16T04:39:06;20.40;55.50
34249;DHT22;20508;50.834;3.160;2022-10-16T04:41:32;20.30;55.40
34249;DHT22;20508;50.834;3.160;2022-10-16T04:43:59;20.40;55.50
34249;DHT22;20508;50.834;3.160;2022-10-16T04:46:25;20.40;55.50
34249;DHT22;20508;50.834;3.160;2022-10-16T04:48:53;20.30;55.40
34249;DHT22;20508;50.834;3.160;2022-10-16T04:51:19;20.30;55.60
34249;DHT22;20508;50.834;3.160;2022-10-16T04:53:45;20.30;55.60
34249;DHT22;20508;50.834;3.160;2022-10-16T04:56:11;20.30;55.60
34249;DHT22;20508;50.834;3.160;2022-10-16T04:58:37;20.30;55.70
34249;DHT22;20508;50.834;3.160;2022-10-16T05:01:04;20.20;55.70
34249;DHT22;20508;50.834;3.160;2022-10-16T05:03:30;20.20;55.70
34249;DHT22;20508;50.834;3.160;2022-10-16T05:05:56;20.20;55.80
34249;DHT22;20508;50.834;3.160;2022-10-16T05:08:29;20.20;55.90
34249;DHT22;20508;50.834;3.160;2022-10-16T05:10:56;20.20;56.60
34249;DHT22;20508;50.834;3.160;2022-10-16T05:13:22;20.20;56.00
34249;DHT22;20508;50.834;3.160;2022-10-16T05:15:49;20.20;56.00
34249;DHT22;20508;50.834;3.160;2022-10-16T05:18:16;20.20;55.90
34249;DHT22;20508;50.834;3.160;2022-10-16T05:20:43;20.20;56.50
34249;DHT22;20508;50.834;3.160;2022-10-16T05:23:09;20.20;55.90
34249;DHT22;20508;50.834;3.160;2022-10-16T05:25:38;20.20;55.80
34249;DHT22;20508;50.834;3.160;2022-10-16T05:28:08;20.20;55.80
34249;DHT22;20508;50.834;3.160;2022-10-16T05:30:34;20.30;55.80
34249;DHT22;20508;50.834;3.160;2022-10-16T05:33:05;20.20;55.70
34249;DHT22;20508;50.834;3.160;2022-10-16T05:35:31;20.20;55.80
34249;DHT22;20508;50.834;3.160;2022-10-16T05:37:57;20.20;55.80
34249;DHT22;20508;50.834;3.160;2022-10-16T05:40:23;20.20;55.90
34249;DHT22;20508;50.834;3.160;2022-10-16T05:42:49;20.20;55.80
34249;DHT22;20508;50.834;3.160;2022-10-16T05:45:15;20.20;55.90
34249;DHT22;20508;50.834;3.160;2022-10-16T05:47:41;20.10;55.80
34249;DHT22;20508;50.834;3.160;2022-10-16T05:50:08;20.10;55.90
34249;DHT22;20508;50.834;3.160;2022-10-16T05:52:34;20.10;55.90
34249;DHT22;20508;50.834;3.160;2022-10-16T05:55:01;20.10;55.90
34249;DHT22;20508;50.834;3.160;2022-10-16T05:57:29;20.10;55.90
34249;DHT22;20508;50.834;3.160;2022-10-16T05:59:55;20.10;55.90
34249;DHT22;20508;50.834;3.160;2022-10-16T06:02:22;20.20;55.80
34249;DHT22;20508;50.834;3.160;2022-10-16T06:04:48;20.20;55.80
34249;DHT22;20508;50.834;3.160;2022-10-16T06:07:17;20.20;55.70
34249;DHT22;20508;50.834;3.160;2022-10-16T06:09:43;20.20;55.60
34249;DHT22;20508;50.834;3.160;2022-10-16T06:12:09;20.20;55.60
34249;DHT22;20508;50.834;3.160;2022-10-16T06:14:35;20.20;55.60
34249;DHT22;20508;50.834;3.160;2022-10-16T06:17:04;20.20;55.60
34249;DHT22;20508;50.834;3.160;2022-10-16T06:19:31;20.20;55.60
34249;DHT22;20508;50.834;3.160;2022-10-16T06:21:57;20.20;55.60
34249;DHT22;20508;50.834;3.160;2022-10-16T06:24:24;20.20;55.60
34249;DHT22;20508;50.834;3.160;2022-10-16T06:26:53;20.10;55.50
34249;DHT22;20508;50.834;3.160;2022-10-16T06:29:19;20.10;55.60
34249;DHT22;20508;50.834;3.160;2022-10-16T06:31:46;20.10;55.60
34249;DHT22;20508;50.834;3.160;2022-10-16T06:34:12;20.10;55.60
34249;DHT22;20508;50.834;3.160;2022-10-16T06:36:38;20.10;55.60
34249;DHT22;20508;50.834;3.160;2022-10-16T06:39:05;20.10;55.60
34249;DHT22;20508;50.834;3.160;2022-10-16T06:41:33;20.10;55.60
34249;DHT22;20508;50.834;3.160;2022-10-16T06:44:00;20.10;55.50
34249;DHT22;20508;50.834;3.160;2022-10-16T06:46:27;20.20;56.20
34249;DHT22;20508;50.834;3.160;2022-10-16T06:48:53;20.20;55.40
34249;DHT22;20508;50.834;3.160;2022-10-16T06:51:23;20.20;55.50
34249;DHT22;20508;50.834;3.160;2022-10-16T06:53:51;20.20;55.50
34249;DHT22;20508;50.834;3.160;2022-10-16T06:56:23;20.20;55.60
34249;DHT22;20508;50.834;3.160;2022-10-16T06:58:50;20.20;55.60
34249;DHT22;20508;50.834;3.160;2022-10-16T07:01:18;20.20;55.60
34249;DHT22;20508;50.834;3.160;2022-10-16T07:03:45;20.20;55.60
34249;DHT22;20508;50.834;3.160;2022-10-16T07:06:17;20.20;55.50
34249;DHT22;20508;50.834;3.160;2022-10-16T07:08:45;20.30;55.50
34249;DHT22;20508;50.834;3.160;2022-10-16T07:11:18;20.30;55.50
34249;DHT22;20508;50.834;3.160;2022-10-16T07:13:45;20.30;55.40
34249;DHT22;20508;50.834;3.160;2022-10-16T07:16:17;20.30;55.40
34249;DHT22;20508;50.834;3.160;2022-10-16T07:18:43;20.30;55.50
34249;DHT22;20508;50.834;3.160;2022-10-16T07:21:18;20.40;55.50
34249;DHT22;20508;50.834;3.160;2022-10-16T07:23:50;20.40;55.30
34249;DHT22;20508;50.834;3.160;2022-10-16T07:26:16;20.40;55.30
34249;DHT22;20508;50.834;3.160;2022-10-16T07:28:43;20.50;55.30
34249;DHT22;20508;50.834;3.160;2022-10-16T07:31:12;20.50;55.20
34249;DHT22;20508;50.834;3.160;2022-10-16T07:33:40;20.50;55.20
34249;DHT22;20508;50.834;3.160;2022-10-16T07:36:08;20.50;55.20
34249;DHT22;20508;50.834;3.160;2022-10-16T07:38:34;20.50;55.40
34249;DHT22;20508;50.834;3.160;2022-10-16T07:41:02;20.50;55.30
34249;DHT22;20508;50.834;3.160;2022-10-16T07:43:29;20.50;56.00
34249;DHT22;20508;50.834;3.160;2022-10-16T07:45:56;20.40;55.50
34249;DHT22;20508;50.834;3.160;2022-10-16T07:48:23;20.40;55.60
34249;DHT22;20508;50.834;3.160;2022-10-16T07:50:50;20.40;55.60
34249;DHT22;20508;50.834;3.160;2022-10-16T07:53:16;20.30;55.70
34249;DHT22;20508;50.834;3.160;2022-10-16T07:55:43;20.30;55.90
34249;DHT22;20508;50.834;3.160;2022-10-16T07:58:09;20.30;56.00
34249;DHT22;20508;50.834;3.160;2022-10-16T08:00:36;20.30;56.10
34249;DHT22;20508;50.834;3.160;2022-10-16T08:03:07;20.30;56.10
34249;DHT22;20508;50.834;3.160;2022-10-16T08:05:34;20.20;56.20
34249;DHT22;20508;50.834;3.160;2022-10-16T08:08:02;20.20;56.40
34249;DHT22;20508;50.834;3.160;2022-10-16T08:10:29;20.30;56.40
34249;DHT22;20508;50.834;3.160;2022-10-16T08:12:55;20.30;56.30
34249;DHT22;20508;50.834;3.160;2022-10-16T08:15:22;20.30;56.30
34249;DHT22;20508;50.834;3.160;2022-10-16T08:17:58;20.30;56.30
34249;DHT22;20508;50.834;3.160;2022-10-16T08:20:25;20.30;56.20
34249;DHT22;20508;50.834;3.160;2022-10-16T08:22:52;20.30;56.30
34249;DHT22;20508;50.834;3.160;2022-10-16T08:25:22;20.30;56.20
34249;DHT22;20508;50.834;3.160;2022-10-16T08:27:48;20.30;56.30
34249;DHT22;20508;50.834;3.160;2022-10-16T08:30:16;20.20;56.20
34249;DHT22;20508;50.834;3.160;2022-10-16T08:32:45;20.30;56.30
34249;DHT22;20508;50.834;3.160;2022-10-16T08:35:12;20.20;56.40
34249;DHT22;20508;50.834;3.160;2022-10-16T08:37:41;20.30;56.50
34249;DHT22;20508;50.834;3.160;2022-10-16T08:40:27;20.30;56.50
34249;DHT22;20508;50.834;3.160;2022-10-16T08:43:19;20.30;56.70
34249;DHT22;20508;50.834;3.160;2022-10-16T08:46:24;20.30;56.80
34249;DHT22;20508;50.834;3.160;2022-10-16T08:49:02;20.30;56.80
34249;DHT22;20508;50.834;3.160;2022-10-16T08:51:35;20.30;56.90
34249;DHT22;20508;50.834;3.160;2022-10-16T08:54:04;20.50;56.80
34249;DHT22;20508;50.834;3.160;2022-10-16T08:56:31;20.50;56.80
34249;DHT22;20508;50.834;3.160;2022-10-16T08:58:59;20.50;56.70
34249;DHT22;20508;50.834;3.160;2022-10-16T09:02:08;20.60;56.40
34249;DHT22;20508;50.834;3.160;2022-10-16T09:04:52;20.70;56.40
34249;DHT22;20508;50.834;3.160;2022-10-16T09:12:57;20.70;56.10
34249;DHT22;20508;50.834;3.160;2022-10-16T09:15:39;20.80;56.50
34249;DHT22;20508;50.834;3.160;2022-10-16T09:18:26;20.80;56.30
34249;DHT22;20508;50.834;3.160;2022-10-16T09:21:08;20.80;56.30
34249;DHT22;20508;50.834;3.160;2022-10-16T09:23:37;20.80;56.40
34249;DHT22;20508;50.834;3.160;2022-10-16T09:26:05;20.80;56.50
34249;DHT22;20508;50.834;3.160;2022-10-16T09:28:32;20.90;56.60
34249;DHT22;20508;50.834;3.160;2022-10-16T09:30:58;20.90;56.70
34249;DHT22;20508;50.834;3.160;2022-10-16T09:33:29;20.90;56.70
34249;DHT22;20508;50.834;3.160;2022-10-16T09:35:59;21.00;56.40
34249;DHT22;20508;50.834;3.160;2022-10-16T09:38:28;21.00;56.40
34249;DHT22;20508;50.834;3.160;2022-10-16T09:40:58;21.10;56.20
34249;DHT22;20508;50.834;3.160;2022-10-16T09:43:28;21.00;56.20
34249;DHT22;20508;50.834;3.160;2022-10-16T09:46:06;21.10;56.10
34249;DHT22;20508;50.834;3.160;2022-10-16T09:48:48;21.10;56.00
34249;DHT22;20508;50.834;3.160;2022-10-16T09:51:34;21.20;56.10
34249;DHT22;20508;50.834;3.160;2022-10-16T09:54:14;21.10;56.40
34249;DHT22;20508;50.834;3.160;2022-10-16T09:56:40;21.10;56.80
34249;DHT22;20508;50.834;3.160;2022-10-16T09:59:15;21.00;57.10
34249;DHT22;20508;50.834;3.160;2022-10-16T10:01:49;21.10;56.90
34249;DHT22;20508;50.834;3.160;2022-10-16T10:04:19;21.10;56.90
34249;DHT22;20508;50.834;3.160;2022-10-16T10:06:53;21.10;56.90
34249;DHT22;20508;50.834;3.160;2022-10-16T10:09:44;21.20;56.80
34249;DHT22;20508;50.834;3.160;2022-10-16T10:12:28;21.20;56.70
34249;DHT22;20508;50.834;3.160;2022-10-16T10:17:31;21.30;56.80
34249;DHT22;20508;50.834;3.160;2022-10-16T10:20:00;21.30;56.70
34249;DHT22;20508;50.834;3.160;2022-10-16T10:27:51;21.50;55.90
34249;DHT22;20508;50.834;3.160;2022-10-16T10:38:54;21.50;56.00
34249;DHT22;20508;50.834;3.160;2022-10-16T10:41:27;21.50;56.10
34249;DHT22;20508;50.834;3.160;2022-10-16T10:44:26;21.50;56.20
34249;DHT22;20508;50.834;3.160;2022-10-16T10:50:06;21.40;56.20
34249;DHT22;20508;50.834;3.160;2022-10-16T10:55:47;21.40;56.10
34249;DHT22;20508;50.834;3.160;2022-10-16T11:06:50;21.40;56.00
34249;DHT22;20508;50.834;3.160;2022-10-16T11:11:43;21.50;55.90
34249;DHT22;20508;50.834;3.160;2022-10-16T11:14:28;21.50;55.60
34249;DHT22;20508;50.834;3.160;2022-10-16T11:17:20;21.50;55.50
34249;DHT22;20508;50.834;3.160;2022-10-16T11:20:03;21.50;55.40
34249;DHT22;20508;50.834;3.160;2022-10-16T11:22:36;21.50;55.30
34249;DHT22;20508;50.834;3.160;2022-10-16T11:25:18;21.40;55.30
34249;DHT22;20508;50.834;3.160;2022-10-16T11:27:51;21.40;55.40
34249;DHT22;20508;50.834;3.160;2022-10-16T11:30:24;21.30;55.30
34249;DHT22;20508;50.834;3.160;2022-10-16T11:35:37;21.30;55.50
34249;DHT22;20508;50.834;3.160;2022-10-16T11:38:10;21.30;55.50
34249;DHT22;20508;50.834;3.160;2022-10-16T11:40:43;21.30;54.80
34249;DHT22;20508;50.834;3.160;2022-10-16T11:43:32;21.30;55.00
34249;DHT22;20508;50.834;3.160;2022-10-16T11:46:08;21.40;55.00
34249;DHT22;20508;50.834;3.160;2022-10-16T11:48:47;21.30;55.10
34249;DHT22;20508;50.834;3.160;2022-10-16T11:51:21;21.30;55.00
34249;DHT22;20508;50.834;3.160;2022-10-16T11:54:16;21.30;55.00
34249;DHT22;20508;50.834;3.160;2022-10-16T11:56:50;21.40;54.90
34249;DHT22;20508;50.834;3.160;2022-10-16T11:59:35;21.30;55.10
34249;DHT22;20508;50.834;3.160;2022-10-16T12:08:02;21.20;54.80
34249;DHT22;20508;50.834;3.160;2022-10-16T12:10:30;21.20;55.00
34249;DHT22;20508;50.834;3.160;2022-10-16T12:12:57;21.20;55.00
34249;DHT22;20508;50.834;3.160;2022-10-16T12:15:32;21.20;55.20
34249;DHT22;20508;50.834;3.160;2022-10-16T12:17:59;21.30;55.20
34249;DHT22;20508;50.834;3.160;2022-10-16T12:20:31;21.20;55.30
34249;DHT22;20508;50.834;3.160;2022-10-16T12:23:00;21.30;55.30
34249;DHT22;20508;50.834;3.160;2022-10-16T12:28:19;21.30;55.20
34249;DHT22;20508;50.834;3.160;2022-10-16T12:30:54;21.30;54.60
34249;DHT22;20508;50.834;3.160;2022-10-16T12:33:29;21.30;54.80
34249;DHT22;20508;50.834;3.160;2022-10-16T12:35:57;21.30;54.80
34249;DHT22;20508;50.834;3.160;2022-10-16T12:38:30;21.20;55.40
34249;DHT22;20508;50.834;3.160;2022-10-16T12:41:02;21.30;55.70
34249;DHT22;20508;50.834;3.160;2022-10-16T12:48:45;21.30;55.30
34249;DHT22;20508;50.834;3.160;2022-10-16T12:51:24;21.20;55.50
34249;DHT22;20508;50.834;3.160;2022-10-16T12:53:59;21.30;55.50
34249;DHT22;20508;50.834;3.160;2022-10-16T13:02:36;21.20;55.80
34249;DHT22;20508;50.834;3.160;2022-10-16T13:08:21;21.20;55.80
34249;DHT22;20508;50.834;3.160;2022-10-16T13:11:25;21.30;55.50
34249;DHT22;20508;50.834;3.160;2022-10-16T13:16:56;21.10;54.90
34249;DHT22;20508;50.834;3.160;2022-10-16T13:22:17;21.20;54.50
34249;DHT22;20508;50.834;3.160;2022-10-16T13:25:08;21.30;54.30
34249;DHT22;20508;50.834;3.160;2022-10-16T13:27:55;21.30;54.30
34249;DHT22;20508;50.834;3.160;2022-10-16T13:30:38;21.30;54.30
34249;DHT22;20508;50.834;3.160;2022-10-16T13:35:53;21.40;54.40
34249;DHT22;20508;50.834;3.160;2022-10-16T13:38:27;21.30;54.40
34249;DHT22;20508;50.834;3.160;2022-10-16T13:41:01;21.40;55.10
34249;DHT22;20508;50.834;3.160;2022-10-16T13:46:00;21.30;54.50
34249;DHT22;20508;50.834;3.160;2022-10-16T13:48:28;21.40;54.50
34249;DHT22;20508;50.834;3.160;2022-10-16T13:51:23;21.40;54.60
34249;DHT22;20508;50.834;3.160;2022-10-16T13:53:48;21.40;54.00
34249;DHT22;20508;50.834;3.160;2022-10-16T13:56:17;21.20;53.60
34249;DHT22;20508;50.834;3.160;2022-10-16T13:58:44;21.30;54.10
34249;DHT22;20508;50.834;3.160;2022-10-16T14:01:23;21.30;54.00
34249;DHT22;20508;50.834;3.160;2022-10-16T14:03:52;21.30;53.70
34249;DHT22;20508;50.834;3.160;2022-10-16T14:06:22;21.30;53.80
34249;DHT22;20508;50.834;3.160;2022-10-16T14:09:01;21.30;53.90
34249;DHT22;20508;50.834;3.160;2022-10-16T14:11:27;21.30;54.00
34249;DHT22;20508;50.834;3.160;2022-10-16T14:13:55;21.20;54.20
34249;DHT22;20508;50.834;3.160;2022-10-16T14:16:26;21.20;54.20
34249;DHT22;20508;50.834;3.160;2022-10-16T14:19:02;21.20;54.20
34249;DHT22;20508;50.834;3.160;2022-10-16T14:21:29;21.30;54.30
34249;DHT22;20508;50.834;3.160;2022-10-16T14:23:58;21.20;54.50
34249;DHT22;20508;50.834;3.160;2022-10-16T14:26:27;21.20;54.90
34249;DHT22;20508;50.834;3.160;2022-10-16T14:29:18;21.20;54.60
34249;DHT22;20508;50.834;3.160;2022-10-16T14:31:59;21.30;54.40
34249;DHT22;20508;50.834;3.160;2022-10-16T14:34:37;21.30;54.40
34249;DHT22;20508;50.834;3.160;2022-10-16T14:37:28;21.20;54.50
34249;DHT22;20508;50.834;3.160;2022-10-16T14:39:56;21.30;54.50
34249;DHT22;20508;50.834;3.160;2022-10-16T14:42:24;21.20;54.80
34249;DHT22;20508;50.834;3.160;2022-10-16T14:44:52;21.20;54.80
34249;DHT22;20508;50.834;3.160;2022-10-16T14:47:22;21.10;54.70
34249;DHT22;20508;50.834;3.160;2022-10-16T14:49:53;21.10;55.00
34249;DHT22;20508;50.834;3.160;2022-10-16T14:52:24;21.10;55.00
34249;DHT22;20508;50.834;3.160;2022-10-16T14:54:51;21.10;55.30
34249;DHT22;20508;50.834;3.160;2022-10-16T14:57:24;21.10;55.40
34249;DHT22;20508;50.834;3.160;2022-10-16T15:00:03;21.10;55.40
34249;DHT22;20508;50.834;3.160;2022-10-16T15:02:36;21.10;55.50
34249;DHT22;20508;50.834;3.160;2022-10-16T15:07:37;21.10;55.50
34249;DHT22;20508;50.834;3.160;2022-10-16T15:10:04;21.00;55.70
34249;DHT22;20508;50.834;3.160;2022-10-16T15:12:30;21.00;55.60
34249;DHT22;20508;50.834;3.160;2022-10-16T15:14:56;21.10;55.80
34249;DHT22;20508;50.834;3.160;2022-10-16T15:17:23;21.10;55.80
34249;DHT22;20508;50.834;3.160;2022-10-16T15:19:49;21.10;55.80
34249;DHT22;20508;50.834;3.160;2022-10-16T15:22:17;21.10;55.70
34249;DHT22;20508;50.834;3.160;2022-10-16T15:24:52;21.20;55.70
34249;DHT22;20508;50.834;3.160;2022-10-16T15:27:18;21.10;55.70
34249;DHT22;20508;50.834;3.160;2022-10-16T15:29:45;21.20;55.80
34249;DHT22;20508;50.834;3.160;2022-10-16T15:32:11;21.10;55.90
34249;DHT22;20508;50.834;3.160;2022-10-16T15:34:37;21.10;55.90
34249;DHT22;20508;50.834;3.160;2022-10-16T15:37:04;21.10;56.00
34249;DHT22;20508;50.834;3.160;2022-10-16T15:39:32;21.20;56.10
34249;DHT22;20508;50.834;3.160;2022-10-16T15:41:58;21.10;56.10
34249;DHT22;20508;50.834;3.160;2022-10-16T15:44:24;21.10;56.20
34249;DHT22;20508;50.834;3.160;2022-10-16T15:46:55;21.10;56.30
34249;DHT22;20508;50.834;3.160;2022-10-16T15:49:22;21.10;56.40
34249;DHT22;20508;50.834;3.160;2022-10-16T15:51:48;21.10;56.40
34249;DHT22;20508;50.834;3.160;2022-10-16T15:54:23;21.10;56.40
34249;DHT22;20508;50.834;3.160;2022-10-16T15:56:49;21.20;56.40
34249;DHT22;20508;50.834;3.160;2022-10-16T15:59:15;21.20;56.30
34249;DHT22;20508;50.834;3.160;2022-10-16T16:01:42;21.30;56.20
34249;DHT22;20508;50.834;3.160;2022-10-16T16:04:10;21.30;56.10
34249;DHT22;20508;50.834;3.160;2022-10-16T16:06:39;21.40;56.10
34249;DHT22;20508;50.834;3.160;2022-10-16T16:09:11;21.30;55.90
34249;DHT22;20508;50.834;3.160;2022-10-16T16:11:37;21.40;55.70
34249;DHT22;20508;50.834;3.160;2022-10-16T16:14:05;21.40;55.60
34249;DHT22;20508;50.834;3.160;2022-10-16T16:16:32;21.50;55.50
34249;DHT22;20508;50.834;3.160;2022-10-16T16:19:06;21.50;55.50
34249;DHT22;20508;50.834;3.160;2022-10-16T16:21:35;21.50;55.40
34249;DHT22;20508;50.834;3.160;2022-10-16T16:24:02;21.50;55.50
34249;DHT22;20508;50.834;3.160;2022-10-16T16:26:34;21.50;55.50
34249;DHT22;20508;50.834;3.160;2022-10-16T16:29:03;21.50;55.60
34249;DHT22;20508;50.834;3.160;2022-10-16T16:31:31;21.50;55.70
34249;DHT22;20508;50.834;3.160;2022-10-16T16:33:59;21.40;55.70
34249;DHT22;20508;50.834;3.160;2022-10-16T16:36:26;21.40;55.90
34249;DHT22;20508;50.834;3.160;2022-10-16T16:38:52;21.40;55.90
34249;DHT22;20508;50.834;3.160;2022-10-16T16:41:20;21.40;56.10
34249;DHT22;20508;50.834;3.160;2022-10-16T16:43:47;21.30;56.10
34249;DHT22;20508;50.834;3.160;2022-10-16T16:46:14;21.30;56.30
34249;DHT22;20508;50.834;3.160;2022-10-16T16:48:41;21.30;56.30
34249;DHT22;20508;50.834;3.160;2022-10-16T16:51:12;21.30;56.50
34249;DHT22;20508;50.834;3.160;2022-10-16T16:53:49;21.30;56.50
34249;DHT22;20508;50.834;3.160;2022-10-16T16:56:16;21.20;56.50
34249;DHT22;20508;50.834;3.160;2022-10-16T16:58:45;21.30;56.60
34249;DHT22;20508;50.834;3.160;2022-10-16T17:01:11;21.30;56.50
34249;DHT22;20508;50.834;3.160;2022-10-16T17:03:42;21.30;56.60
34249;DHT22;20508;50.834;3.160;2022-10-16T17:06:13;21.30;56.50
34249;DHT22;20508;50.834;3.160;2022-10-16T17:08:40;21.30;56.60
34249;DHT22;20508;50.834;3.160;2022-10-16T17:11:12;21.30;56.60
34249;DHT22;20508;50.834;3.160;2022-10-16T17:13:39;21.30;56.70
34249;DHT22;20508;50.834;3.160;2022-10-16T17:16:05;21.20;56.70
34249;DHT22;20508;50.834;3.160;2022-10-16T17:18:33;21.30;56.80
34249;DHT22;20508;50.834;3.160;2022-10-16T17:21:05;21.20;56.90
34249;DHT22;20508;50.834;3.160;2022-10-16T17:23:35;21.20;56.90
34249;DHT22;20508;50.834;3.160;2022-10-16T17:26:15;21.20;57.00
34249;DHT22;20508;50.834;3.160;2022-10-16T17:28:42;21.20;57.20
34249;DHT22;20508;50.834;3.160;2022-10-16T17:31:14;21.20;57.30